Terminal Aerodrome Forecast
Issued by NWS Buffalo, NY

Home | Current Version | Previous Version | Text Only | Print | Product List | Glossary On
Versions: 1 2 3 4 5 6 7 8 9 10 11 12 13 14 15 16 17 18 19 20 21 22 23 24 25 26
762
FTUS41 KBUF 121458 AAA
TAFROC
TAF AMD
KROC 121458Z 1215/1312 21012KT P6SM BKN040
     FM122000 23016G24KT P6SM VCSH OVC035
     FM122300 25014G20KT 4SM -SHSN OVC025
     FM130100 26012KT 2SM -SHSN OVC020
     FM130200 28012KT 1/2SM SN OVC012
     FM130600 31017G25KT 2SM -SN BLSN OVC015=

USA.gov is the U.S. government's official web portal to all federal, state and local government web resources and services.